Plattsmouth, NE

9:42 AM CST on February 23, 2017 (GMT -0600)
Plattsmouth Municipal

Weather History for KPMV - December, 2012

Change the Weather History Date:

Friday, December 7, 2012

  Actual Average (KOFF) Record (KOFF)
Temperature  
Mean Temperature 38 °F -  
Max Temperature 45 °F 40 °F 55 °F (1999)
Min Temperature 31 °F 22 °F -2 °F (2005)
Degree Days  
Heating Degree Days 26    
Moisture  
Dew Point 27 °F    
Average Humidity 64    
Maximum Humidity 88    
Minimum Humidity 43    
Precipitation  
Precipitation 0.00 in - - ()
Sea Level Pressure  
Sea Level Pressure 29.93 in    
Wind  
Wind Speed 4 mph (NNE)    
Max Wind Speed 10 mph    
Max Gust Speed -    
Visibility 10 miles    
Events      
Averages and records for this station are not official NWS values.
T = Trace of Precipitation, MM = Missing Value Source: NWS Daily Summary

Daily Weather History Graph

Daily Weather History Graph

Search for Another Location

Airport or City:

Trip Planner

Search our weather history database for the weather conditions in past years. The results will help you decide how hot, cold, wet, or windy it might be!

Date:

Astronomy

Dec. 07, 2012 Rise Set
Actual Time 7:35 AM CST 4:55 PM CST
Civil Twilight 7:04 AM CST 5:26 PM CST
Nautical Twilight 6:30 AM CST 6:00 PM CST
Astronomical Twilight 5:56 AM CST 6:33 PM CST
Moon 12:53 AM CST (12/7) 12:55 PM CST (12/7)
Length of Visible Light 10h 21m
Length of Day
9h 20m
Last Quarter, 38% of the Moon is Illuminated
Dec 7
Last Quarter
Dec 13
New
Dec 19
First Quarter
Dec 28
Full
Jan 4
Last Quarter

Hourly Weather History & Observations

Time (CST) Temp. Windchill Dew Point Humidity Pressure Visibility Wind Dir Wind Speed Gust Speed Precip Events Conditions
12:15 AM 41.9 °F 40.0 °F 29.8 °F 62% 29.98 in 10.0 mi North 3.5 mph - N/A   Overcast
12:35 AM 41.0 °F 38.0 °F 29.8 °F 64% 29.97 in 10.0 mi North 4.6 mph - N/A   Overcast
12:55 AM 41.4 °F 37.6 °F 30.0 °F 64% 29.97 in 10.0 mi North 5.8 mph - N/A   Overcast
1:15 AM 41.7 °F 38.0 °F 30.0 °F 63% 29.97 in 10.0 mi North 5.8 mph - N/A   Overcast
1:35 AM 41.2 °F 36.6 °F 30.2 °F 65% 29.97 in 10.0 mi North 6.9 mph - N/A   Overcast
1:55 AM 40.3 °F 35.5 °F 29.3 °F 65% 29.97 in 10.0 mi North 6.9 mph - N/A   Overcast
2:15 AM 39.4 °F 36.1 °F 28.8 °F 66% 29.97 in 10.0 mi North 4.6 mph - N/A   Overcast
2:35 AM 38.1 °F 34.6 °F 28.4 °F 68% 29.96 in 10.0 mi North 4.6 mph - N/A   Mostly Cloudy
2:55 AM 37.4 °F 34.9 °F 28.2 °F 69% 29.96 in 10.0 mi North 3.5 mph - N/A   Scattered Clouds
3:15 AM 36.9 °F 33.1 °F 27.9 °F 70% 29.95 in 10.0 mi North 4.6 mph - N/A   Clear
3:35 AM 35.6 °F 31.7 °F 27.5 °F 72% 29.95 in 10.0 mi North 4.6 mph - N/A   Clear
3:55 AM 35.6 °F - 27.9 °F 73% 29.95 in 10.0 mi Calm Calm - N/A   Scattered Clouds
4:15 AM 34.7 °F - 27.7 °F 76% 29.94 in 10.0 mi Calm Calm - N/A   Mostly Cloudy
4:35 AM 35.8 °F 31.9 °F 28.4 °F 75% 29.94 in 10.0 mi North 4.6 mph - N/A   Overcast
4:55 AM 35.8 °F 31.9 °F 28.9 °F 76% 29.94 in 10.0 mi NE 4.6 mph - N/A   Overcast
5:15 AM 34.9 °F - 28.8 °F 78% 29.94 in 10.0 mi Calm Calm - N/A   Overcast
5:35 AM 35.1 °F 31.0 °F 29.1 °F 79% 29.94 in 10.0 mi NNE 4.6 mph - N/A   Mostly Cloudy
5:55 AM 34.9 °F - 29.7 °F 81% 29.94 in 10.0 mi Calm Calm - N/A   Scattered Clouds
6:15 AM 34.7 °F 30.6 °F 29.8 °F 82% 29.94 in 10.0 mi NE 4.6 mph - N/A   Clear
6:35 AM 33.8 °F 29.6 °F 29.7 °F 85% 29.95 in 10.0 mi NNE 4.6 mph - N/A   Clear
6:55 AM 33.4 °F 29.1 °F 29.7 °F 86% 29.95 in 10.0 mi NNE 4.6 mph - N/A   Clear
7:15 AM 33.1 °F 27.7 °F 29.8 °F 88% 29.94 in 10.0 mi NE 5.8 mph - N/A   Clear
7:35 AM 32.4 °F 27.9 °F 29.3 °F 88% 29.94 in 10.0 mi ENE 4.6 mph - N/A   Clear
7:55 AM 32.9 °F 27.5 °F 29.8 °F 88% 29.94 in 10.0 mi ENE 5.8 mph - N/A   Clear
8:15 AM 33.8 °F 27.7 °F 30.2 °F 87% 29.93 in 10.0 mi ENE 6.9 mph - N/A   Clear
8:35 AM 35.6 °F 30.7 °F 30.6 °F 82% 29.93 in 10.0 mi ENE 5.8 mph - N/A   Clear
8:55 AM 36.9 °F 32.2 °F 30.2 °F 77% 29.93 in 10.0 mi ENE 5.8 mph - N/A   Clear
9:15 AM 37.6 °F 32.3 °F 29.8 °F 74% 29.93 in 10.0 mi East 6.9 mph - N/A   Clear
9:35 AM 38.3 °F 34.8 °F 29.7 °F 71% 29.93 in 10.0 mi ENE 4.6 mph - N/A   Clear
9:55 AM 39.2 °F 33.6 °F 28.9 °F 67% 29.93 in 10.0 mi East 8.1 mph - N/A   Clear
10:15 AM 40.6 °F 35.4 °F 28.2 °F 61% 29.92 in 10.0 mi East 8.1 mph - N/A   Clear
10:35 AM 42.6 °F 36.8 °F 26.1 °F 52% 29.91 in 10.0 mi ESE 10.4 mph - N/A   Clear
10:55 AM 42.8 °F 37.5 °F 26.8 °F 53% 29.89 in 10.0 mi East 9.2 mph - N/A   Clear
11:15 AM 44.2 °F 41.0 °F 26.1 °F 49% 29.90 in 10.0 mi SE 5.8 mph - N/A   Clear
11:35 AM 44.6 °F - 25.5 °F 47% 29.91 in 10.0 mi Calm Calm - N/A   Clear
11:55 AM 44.8 °F - 25.9 °F 48% 29.92 in 10.0 mi Calm Calm - N/A   Clear
12:15 PM 45.1 °F - 25.5 °F 46% 29.91 in 10.0 mi Calm Calm - N/A   Clear
12:35 PM 45.5 °F - 25.2 °F 45% 29.90 in 10.0 mi Calm Calm - N/A   Scattered Clouds
12:55 PM 45.5 °F 44.2 °F 24.6 °F 44% 29.90 in 10.0 mi NW 3.5 mph - N/A   Mostly Cloudy
1:15 PM 45.7 °F 42.7 °F 24.1 °F 43% 29.90 in 10.0 mi NNW 5.8 mph - N/A   Overcast
1:35 PM 45.0 °F 40.6 °F 24.1 °F 44% 29.90 in 10.0 mi NW 8.1 mph - N/A   Overcast
1:55 PM 45.0 °F 40.6 °F 23.7 °F 43% 29.90 in 10.0 mi NW 8.1 mph - N/A   Overcast
2:15 PM 45.0 °F 41.8 °F 23.7 °F 43% 29.90 in 10.0 mi NNW 5.8 mph - N/A   Overcast
2:35 PM 44.6 °F 42.2 °F 23.5 °F 44% 29.90 in 10.0 mi North 4.6 mph - N/A   Overcast
2:55 PM 44.2 °F 40.3 °F 23.9 °F 45% 29.89 in 10.0 mi North 6.9 mph - N/A   Overcast
3:15 PM 43.9 °F 39.3 °F 24.4 °F 46% 29.88 in 10.0 mi NE 8.1 mph - N/A   Overcast
3:35 PM 43.3 °F 39.9 °F 23.9 °F 46% 29.89 in 10.0 mi North 5.8 mph - N/A   Overcast
3:55 PM 43.0 °F 39.5 °F 23.9 °F 47% 29.90 in 10.0 mi North 5.8 mph - N/A   Overcast
4:15 PM 42.1 °F 39.2 °F 24.6 °F 50% 29.90 in 10.0 mi North 4.6 mph - N/A   Overcast
4:35 PM 41.9 °F 38.2 °F 24.4 °F 50% 29.89 in 10.0 mi NNE 5.8 mph - N/A   Overcast
4:55 PM 41.5 °F 37.1 °F 23.7 °F 49% 29.87 in 10.0 mi ENE 6.9 mph - N/A   Overcast
5:15 PM 40.1 °F 36.1 °F 23.9 °F 52% 29.88 in 10.0 mi NE 5.8 mph - N/A   Mostly Cloudy
5:35 PM 40.1 °F 38.0 °F 24.3 °F 53% 29.89 in 10.0 mi NNE 3.5 mph - N/A   Overcast
5:55 PM 39.4 °F 36.1 °F 24.1 °F 54% 29.89 in 10.0 mi NE 4.6 mph - N/A   Mostly Cloudy
6:15 PM 38.1 °F 35.7 °F 23.9 °F 57% 29.90 in 10.0 mi NNE 3.5 mph - N/A   Scattered Clouds
6:35 PM 37.6 °F 33.1 °F 23.9 °F 58% 29.90 in 10.0 mi NNE 5.8 mph - N/A   Clear
6:55 PM 36.9 °F - 23.9 °F 59% 29.91 in 10.0 mi Calm Calm - N/A   Clear
7:15 PM 36.0 °F 33.3 °F 24.1 °F 62% 29.92 in 10.0 mi North 3.5 mph - N/A   Clear
7:35 PM 35.6 °F 32.8 °F 24.6 °F 64% 29.93 in 10.0 mi NNW 3.5 mph - N/A   Clear
7:55 PM 34.9 °F 30.8 °F 24.8 °F 67% 29.93 in 10.0 mi North 4.6 mph - N/A   Clear
8:15 PM 35.6 °F 32.8 °F 25.5 °F 67% 29.93 in 10.0 mi North 3.5 mph - N/A   Clear
8:35 PM 35.8 °F 33.0 °F 25.7 °F 67% 29.93 in 10.0 mi NNE 3.5 mph - N/A   Clear
8:55 PM 35.8 °F 31.9 °F 25.7 °F 67% 29.93 in 10.0 mi NNE 4.6 mph - N/A   Clear
9:15 PM 35.6 °F 31.7 °F 26.1 °F 68% 29.95 in 10.0 mi North 4.6 mph - N/A   Clear
9:55 PM 34.9 °F 30.8 °F 25.3 °F 68% 29.94 in 10.0 mi NNE 4.6 mph - N/A   Clear
10:15 PM 34.7 °F - 25.3 °F 69% 29.96 in 10.0 mi Calm Calm - N/A   Clear
10:35 PM 33.8 °F - 25.0 °F 70% 29.96 in 10.0 mi Calm Calm - N/A   Clear
10:55 PM 34.5 °F - 25.2 °F 69% 29.96 in 10.0 mi Calm Calm - N/A   Clear
11:15 PM 33.6 °F - 25.2 °F 71% 29.96 in 10.0 mi Calm Calm - N/A   Clear
11:35 PM 33.1 °F - 25.3 °F 73% 29.95 in 10.0 mi Calm Calm - N/A   Clear
11:55 PM 31.6 °F - 24.3 °F 74% 29.96 in 10.0 mi Calm Calm - N/A   Clear